Time;durP1;ratioP1;P1;durP2;ratioP2;P2;SDS_P1;SDS_P2;PMS_P1;PMS_P2;Temp;Humidity;BMP_temperature;BMP_pressure;BME280_temperature;BME280_humidity;BME280_pressure;Samples;Min_cycle;Max_cycle;Signal;HPM_P1;HPM_P2
2023/01/09 04:00:57;;;;;;;;;;;6.00;99.90;;;;;;5998669;23;21054;-68
2023/01/09 04:03:23;;;;;;;;;;;6.00;99.90;;;;;;4970785;28;19934;-68
2023/01/09 04:05:50;;;;;;;;;;;6.00;99.90;;;;;;4972080;28;20013;-70
2023/01/09 04:08:17;;;;;;;;;;;6.10;99.90;;;;;;4971726;28;20395;-67
2023/01/09 04:10:44;;;;;;;;;;;6.10;99.90;;;;;;4981979;28;19937;-68
2023/01/09 04:13:11;;;;;;;;;;;6.20;99.90;;;;;;4973905;28;19933;-68
2023/01/09 04:15:37;;;;;;;;;;;6.30;99.90;;;;;;4972736;28;19965;-68
2023/01/09 04:18:05;;;;;;;;;;;6.30;99.90;;;;;;4970410;28;19985;-68
2023/01/09 04:20:32;;;;;;;;;;;6.30;99.90;;;;;;4972398;28;20025;-68
2023/01/09 04:22:59;;;;;;;;;;;6.30;99.90;;;;;;4971557;28;20024;-69
2023/01/09 04:25:25;;;;;;;;;;;6.40;99.90;;;;;;4971425;28;20305;-68
2023/01/09 04:27:52;;;;;;;;;;;6.40;99.90;;;;;;4970303;28;19965;-68
2023/01/09 04:30:19;;;;;;;;;;;6.50;99.90;;;;;;4972536;28;20028;-68
2023/01/09 04:32:45;;;;;;;;;;;6.50;99.90;;;;;;4972570;28;19984;-68
2023/01/09 04:35:14;;;;;;;;;;;6.50;99.90;;;;;;4974142;28;19965;-68
2023/01/09 04:37:40;;;;;;;;;;;6.60;99.90;;;;;;4971474;28;19966;-68
2023/01/09 04:40:09;;;;;;;;;;;6.60;99.90;;;;;;4972215;28;19933;-68
2023/01/09 04:42:35;;;;;;;;;;;6.60;99.90;;;;;;4971336;28;19969;-69
2023/01/09 04:45:02;;;;;;;;;;;6.70;99.90;;;;;;4972361;28;19926;-69
2023/01/09 04:47:30;;;;;;;;;;;6.70;99.90;;;;;;4977369;28;20401;-68
2023/01/09 04:49:57;;;;;;;;;;;6.70;99.90;;;;;;4967293;28;19930;-68
2023/01/09 04:52:25;;;;;;;;;;;6.70;99.90;;;;;;4973507;28;19968;-68
2023/01/09 04:54:52;;;;;;;;;;;6.80;99.90;;;;;;4967483;28;19926;-68
2023/01/09 04:57:19;;;;;;;;;;;6.80;99.90;;;;;;4971410;28;19938;-70
2023/01/09 04:59:46;;;;;;;;;;;6.80;99.90;;;;;;4970567;28;19930;-68
2023/01/09 05:02:12;;;;;;;;;;;6.80;99.90;;;;;;4970994;28;19930;-69
2023/01/09 05:04:39;;;;;;;;;;;6.90;99.90;;;;;;4970881;28;19934;-69
2023/01/09 05:07:06;;;;;;;;;;;6.90;99.90;;;;;;4972001;28;19926;-68
2023/01/09 05:09:34;;;;;;;;;;;6.90;99.90;;;;;;4970575;28;19926;-68
2023/01/09 05:12:01;;;;;;;;;;;6.90;99.90;;;;;;4970406;28;19926;-68
2023/01/09 05:14:28;;;;;;;;;;;7.00;99.90;;;;;;4971906;28;19926;-68
2023/01/09 05:16:55;;;;;;;;;;;7.00;99.90;;;;;;4974122;28;19926;-68
2023/01/09 05:19:22;;;;;;;;;;;7.00;99.90;;;;;;4970428;28;20430;-70
2023/01/09 05:21:49;;;;;;;;;;;7.00;99.90;;;;;;4970580;28;20436;-68
2023/01/09 05:24:16;;;;;;;;;;;7.10;99.90;;;;;;4971466;28;19926;-68
2023/01/09 05:26:44;;;;;;;;;;;7.10;99.90;;;;;;4967010;28;19977;-70
2023/01/09 05:29:11;;;;;;;;;;;7.10;99.90;;;;;;4970185;28;19985;-68
2023/01/09 05:31:37;;;;;;;;;;;7.10;99.90;;;;;;4970459;28;19927;-68
2023/01/09 05:34:04;;;;;;;;;;;7.10;99.90;;;;;;4970435;28;19984;-68
2023/01/09 05:36:31;;;;;;;;;;;7.10;99.90;;;;;;4970190;28;19949;-68
2023/01/09 05:38:58;;;;;;;;;;;7.10;99.90;;;;;;4970527;28;20005;-68
2023/01/09 05:41:25;;;;;;;;;;;7.10;99.90;;;;;;4967993;28;19933;-68
2023/01/09 05:43:53;;;;;;;;;;;7.20;99.90;;;;;;4970761;28;19973;-68
2023/01/09 05:46:20;;;;;;;;;;;7.20;99.90;;;;;;4971390;28;20400;-68
2023/01/09 05:48:46;;;;;;;;;;;7.20;99.90;;;;;;4969747;28;19930;-67
2023/01/09 05:51:13;;;;;;;;;;;7.20;99.90;;;;;;4970523;28;19941;-70
2023/01/09 05:53:40;;;;;;;;;;;7.20;99.90;;;;;;4969978;28;19930;-70
2023/01/09 05:56:07;;;;;;;;;;;7.30;99.90;;;;;;4970146;28;20293;-70
2023/01/09 05:58:34;;;;;;;;;;;7.30;99.90;;;;;;4970024;28;19930;-68
2023/01/09 06:01:02;;;;;;;;;;;7.30;99.90;;;;;;4969810;28;19933;-68
2023/01/09 06:03:29;;;;;;;;;;;7.30;99.90;;;;;;4966811;28;19926;-69
2023/01/09 06:05:55;;;;;;;;;;;7.30;99.90;;;;;;4967782;28;19930;-67
2023/01/09 06:08:22;;;;;;;;;;;7.30;99.90;;;;;;4971240;28;19926;-69
2023/01/09 06:10:49;;;;;;;;;;;7.30;99.90;;;;;;4971340;28;19927;-68
2023/01/09 06:13:16;;;;;;;;;;;7.30;99.90;;;;;;4970134;28;19949;-68
2023/01/09 06:15:43;;;;;;;;;;;7.30;99.90;;;;;;4971467;28;19981;-67
2023/01/09 06:18:11;;;;;;;;;;;7.30;99.90;;;;;;4971300;28;19937;-68
2023/01/09 06:20:38;;;;;;;;;;;7.40;99.90;;;;;;4971274;28;19980;-67
2023/01/09 06:23:04;;;;;;;;;;;7.40;99.90;;;;;;4971451;28;19953;-68
2023/01/09 06:25:31;;;;;;;;;;;7.40;99.90;;;;;;4973364;28;19937;-68
2023/01/09 06:27:58;;;;;;;;;;;7.40;99.90;;;;;;4981467;28;19932;-68
2023/01/09 06:30:25;;;;;;;;;;;7.40;99.90;;;;;;4975497;28;19926;-68
2023/01/09 06:32:51;;;;;;;;;;;7.40;99.90;;;;;;4983527;28;19930;-68
2023/01/09 06:35:21;;;;;;;;;;;7.40;99.90;;;;;;4977320;28;19933;-68
2023/01/09 06:37:48;;;;;;;;;;;7.40;99.90;;;;;;4972978;28;19941;-68
2023/01/09 06:40:15;;;;;;;;;;;7.40;99.90;;;;;;4973219;28;19938;-68
2023/01/09 06:42:45;;;;;;;;;;;7.40;99.90;;;;;;4973344;28;19985;-68
2023/01/09 06:45:12;;;;;;;;;;;7.50;99.90;;;;;;4973277;28;20054;-68
2023/01/09 06:47:39;;;;;;;;;;;7.50;99.90;;;;;;4973238;28;19926;-68
2023/01/09 06:50:06;;;;;;;;;;;7.60;99.90;;;;;;4972909;28;20017;-69
2023/01/09 06:52:34;;;;;;;;;;;7.60;99.90;;;;;;4973059;28;19954;-72
2023/01/09 06:55:01;;;;;;;;;;;7.60;99.90;;;;;;4970915;28;19933;-69
2023/01/09 06:57:28;;;;;;;;;;;7.60;99.90;;;;;;4973296;28;19989;-66
2023/01/09 06:59:54;;;;;;;;;;;7.60;99.90;;;;;;4972525;28;19926;-68
2023/01/09 07:02:22;;;;;;;;;;;7.60;99.90;;;;;;4973200;28;19941;-68
2023/01/09 07:04:48;;;;;;;;;;;7.70;99.90;;;;;;4973566;28;19937;-66
2023/01/09 07:07:15;;;;;;;;;;;7.60;99.90;;;;;;4973398;28;19930;-67
2023/01/09 07:09:43;;;;;;;;;;;7.70;99.90;;;;;;4973448;28;19940;-66
2023/01/09 07:12:11;;;;;;;;;;;7.70;99.90;;;;;;4972729;28;20397;-66
2023/01/09 07:14:38;;;;;;;;;;;7.70;99.90;;;;;;4972930;28;19927;-68
2023/01/09 07:17:05;;;;;;;;;;;7.70;99.90;;;;;;4968901;28;19926;-67
2023/01/09 07:19:31;;;;;;;;;;;7.70;99.90;;;;;;4972486;28;20259;-67
2023/01/09 07:21:58;;;;;;;;;;;7.70;99.90;;;;;;4974283;28;20344;-67
2023/01/09 07:24:25;;;;;;;;;;;7.80;99.90;;;;;;4969168;28;19926;-67
2023/01/09 07:26:53;;;;;;;;;;;7.80;99.90;;;;;;4971030;28;19930;-68
2023/01/09 07:29:20;;;;;;;;;;;7.80;99.90;;;;;;4970598;28;19934;-67
2023/01/09 07:31:47;;;;;;;;;;;7.80;99.90;;;;;;4972664;28;20286;-69
2023/01/09 07:34:13;;;;;;;;;;;7.80;99.90;;;;;;4970681;28;19926;-68
2023/01/09 07:36:40;;;;;;;;;;;7.80;99.90;;;;;;4969291;28;19933;-67
2023/01/09 07:39:08;;;;;;;;;;;7.80;99.90;;;;;;4974395;28;19972;-68
2023/01/09 07:41:34;;;;;;;;;;;7.80;99.90;;;;;;4975994;28;20468;-68
2023/01/09 07:44:03;;;;;;;;;;;7.90;99.90;;;;;;4972244;28;20305;-68
2023/01/09 07:46:29;;;;;;;;;;;7.90;99.90;;;;;;4972322;28;19927;-69
2023/01/09 07:48:56;;;;;;;;;;;7.90;99.90;;;;;;4972166;28;19949;-68
2023/01/09 07:51:23;;;;;;;;;;;7.90;99.90;;;;;;4970006;28;19930;-68
2023/01/09 07:53:50;;;;;;;;;;;7.90;99.90;;;;;;4972191;28;19926;-69
2023/01/09 07:56:16;;;;;;;;;;;7.90;99.90;;;;;;4973553;28;19930;-68
2023/01/09 07:58:43;;;;;;;;;;;7.90;99.90;;;;;;4972035;28;19933;-67
2023/01/09 08:01:11;;;;;;;;;;;7.90;99.90;;;;;;4971723;28;20006;-68
2023/01/09 08:03:38;;;;;;;;;;;7.90;99.90;;;;;;4968323;28;19932;-69
2023/01/09 08:06:05;;;;;;;;;;;7.90;99.90;;;;;;4971843;28;19933;-69
2023/01/09 08:08:32;;;;;;;;;;;7.90;99.90;;;;;;4971394;28;19976;-68
2023/01/09 08:10:58;;;;;;;;;;;7.90;99.90;;;;;;4971876;28;20045;-69
2023/01/09 08:13:25;;;;;;;;;;;7.90;99.90;;;;;;4969956;28;19934;-65
2023/01/09 08:15:52;;;;;;;;;;;8.00;99.90;;;;;;4972025;28;19933;-68
2023/01/09 08:18:20;;;;;;;;;;;8.00;99.90;;;;;;4971502;28;19930;-65
2023/01/09 08:20:47;;;;;;;;;;;8.00;99.90;;;;;;4971697;28;20400;-69
2023/01/09 08:23:14;;;;;;;;;;;8.00;99.90;;;;;;4971300;28;19934;-68
2023/01/09 08:25:41;;;;;;;;;;;8.10;99.90;;;;;;4971290;28;19934;-67
2023/01/09 08:28:09;;;;;;;;;;;8.10;99.90;;;;;;4971475;28;20336;-67
2023/01/09 08:30:35;;;;;;;;;;;8.10;99.90;;;;;;4971123;28;19926;-68
2023/01/09 08:33:02;;;;;;;;;;;8.10;99.90;;;;;;4971440;28;19961;-68
2023/01/09 08:35:30;;;;;;;;;;;8.10;99.90;;;;;;4971283;28;19930;-67
2023/01/09 08:37:57;;;;;;;;;;;8.10;99.90;;;;;;4971145;28;19930;-68
2023/01/09 08:40:24;;;;;;;;;;;8.10;99.90;;;;;;4975122;28;19930;-69
2023/01/09 08:48:19;;;;;;;;;;;8.10;99.90;;;;;;4974343;28;20026;-65
2023/01/09 08:50:47;;;;;;;;;;;8.10;99.90;;;;;;4971134;28;19990;-67
2023/01/09 08:53:15;;;;;;;;;;;8.10;99.90;;;;;;4973954;28;19934;-67
2023/01/09 08:55:42;;;;;;;;;;;8.00;99.90;;;;;;4976328;28;20433;-67
2023/01/09 08:58:09;;;;;;;;;;;8.00;99.90;;;;;;4970783;28;19926;-67
2023/01/09 09:00:35;;;;;;;;;;;8.00;99.90;;;;;;4970454;28;19961;-67
2023/01/09 09:03:02;;;;;;;;;;;8.00;99.90;;;;;;4970707;28;19926;-67
2023/01/09 09:05:30;;;;;;;;;;;8.00;99.90;;;;;;4967669;28;19930;-68
2023/01/09 09:07:58;;;;;;;;;;;8.00;99.90;;;;;;4973284;28;19926;-68
2023/01/09 09:10:26;;;;;;;;;;;8.00;99.90;;;;;;4970632;28;20516;-68
2023/01/09 09:12:54;;;;;;;;;;;8.00;99.90;;;;;;4970910;28;19926;-69
2023/01/09 09:15:23;;;;;;;;;;;8.00;99.90;;;;;;4976499;28;19930;-68
2023/01/09 09:17:52;;;;;;;;;;;8.10;99.90;;;;;;4970230;28;19926;-69
2023/01/09 09:20:19;;;;;;;;;;;8.10;99.90;;;;;;4971326;28;19961;-68
2023/01/09 09:22:46;;;;;;;;;;;8.10;99.90;;;;;;4973933;28;19933;-69
2023/01/09 09:25:15;;;;;;;;;;;8.10;99.90;;;;;;4970725;28;19926;-68
2023/01/09 09:27:42;;;;;;;;;;;8.10;99.90;;;;;;4970508;28;19993;-67
2023/01/09 09:30:09;;;;;;;;;;;8.10;99.90;;;;;;4971650;28;19926;-68
2023/01/09 09:32:36;;;;;;;;;;;8.10;99.90;;;;;;4972794;28;20297;-63
2023/01/09 09:35:03;;;;;;;;;;;8.20;99.90;;;;;;4971277;28;19926;-75
2023/01/09 09:37:29;;;;;;;;;;;8.20;99.90;;;;;;4973356;28;19930;-70
2023/01/09 09:39:56;;;;;;;;;;;8.20;99.90;;;;;;4977670;28;19925;-66
2023/01/09 09:45:37;;;;;;;;;;;8.30;99.90;;;;;;4962866;28;20389;-67
2023/01/09 09:48:11;;;;;;;;;;;8.30;99.90;;;;;;4974042;28;19926;-67
2023/01/09 09:50:55;;;;;;;;;;;8.30;99.90;;;;;;4970270;28;19926;-69
2023/01/09 09:53:27;;;;;;;;;;;8.40;99.90;;;;;;4971105;28;19926;-69
2023/01/09 09:55:56;;;;;;;;;;;8.50;99.90;;;;;;4972689;28;19933;-67
2023/01/09 09:58:35;;;;;;;;;;;8.50;99.90;;;;;;4973957;28;20266;-67
2023/01/09 10:01:04;;;;;;;;;;;8.60;99.90;;;;;;4971819;28;19930;-67
2023/01/09 10:03:34;;;;;;;;;;;8.70;99.90;;;;;;4967936;28;19934;-68
2023/01/09 10:06:04;;;;;;;;;;;8.70;99.90;;;;;;4977765;28;19926;-67
2023/01/09 10:08:38;;;;;;;;;;;8.70;99.90;;;;;;4976438;28;19930;-68
2023/01/09 10:11:10;;;;;;;;;;;8.70;99.90;;;;;;4973771;28;19926;-68
2023/01/09 10:16:29;;;;;;;;;;;8.70;99.90;;;;;;4970069;28;20024;-68
2023/01/09 10:19:01;;;;;;;;;;;8.80;99.90;;;;;;4969099;28;19948;-69
2023/01/09 10:21:32;;;;;;;;;;;8.90;99.90;;;;;;4973910;28;19930;-68
2023/01/09 10:24:13;;;;;;;;;;;8.90;99.90;;;;;;4969784;28;19930;-68
2023/01/09 10:26:42;;;;;;;;;;;8.80;99.90;;;;;;4981483;28;19926;-68
2023/01/09 10:29:16;;;;;;;;;;;8.70;99.90;;;;;;4976856;28;20340;-68
2023/01/09 10:31:52;;;;;;;;;;;8.60;99.90;;;;;;4984044;28;19976;-68
2023/01/09 10:34:26;;;;;;;;;;;8.60;99.90;;;;;;4975108;28;19969;-67
2023/01/09 10:37:02;;;;;;;;;;;8.50;99.90;;;;;;4978622;28;19933;-67
2023/01/09 10:39:31;;;;;;;;;;;8.50;99.90;;;;;;4976994;28;19927;-67
2023/01/09 10:42:00;;;;;;;;;;;8.50;99.90;;;;;;4974268;28;19930;-68
2023/01/09 10:44:32;;;;;;;;;;;8.50;99.90;;;;;;4963507;28;20055;-68
2023/01/09 10:47:01;;;;;;;;;;;8.60;99.90;;;;;;4978692;28;19925;-68
2023/01/09 10:49:28;;;;;;;;;;;8.60;99.90;;;;;;4980706;28;19926;-68
2023/01/09 10:51:59;;;;;;;;;;;8.60;99.90;;;;;;4974876;28;20290;-68
2023/01/09 10:54:28;;;;;;;;;;;8.60;99.90;;;;;;4970771;28;19926;-67
2023/01/09 10:56:56;;;;;;;;;;;8.60;99.90;;;;;;4963491;28;19933;-68
2023/01/09 10:59:23;;;;;;;;;;;8.50;99.90;;;;;;4962802;28;19934;-69
2023/01/09 11:01:50;;;;;;;;;;;8.50;99.90;;;;;;4977301;28;19959;-68
2023/01/09 11:04:24;;;;;;;;;;;8.60;99.90;;;;;;4974854;28;19933;-64
2023/01/09 11:06:53;;;;;;;;;;;8.70;99.90;;;;;;4966668;28;19974;-68
2023/01/09 11:09:20;;;;;;;;;;;8.70;99.90;;;;;;4968245;28;19926;-67
2023/01/09 11:11:46;;;;;;;;;;;8.80;99.90;;;;;;4985930;28;20294;-68
2023/01/09 11:14:14;;;;;;;;;;;8.70;99.90;;;;;;4982318;28;19934;-68
2023/01/09 11:16:51;;;;;;;;;;;8.70;99.90;;;;;;4978514;28;19926;-65
2023/01/09 11:19:17;;;;;;;;;;;8.60;99.90;;;;;;4980780;28;19926;-67
2023/01/09 11:21:46;;;;;;;;;;;8.70;99.90;;;;;;4977148;28;19977;-67
2023/01/09 11:24:30;;;;;;;;;;;8.70;99.90;;;;;;4978243;28;19926;-68
2023/01/09 11:27:22;;;;;;;;;;;8.70;99.90;;;;;;4968267;28;19926;-66
2023/01/09 11:30:04;;;;;;;;;;;8.70;99.90;;;;;;4978867;28;19926;-67
2023/01/09 11:32:31;;;;;;;;;;;8.70;99.90;;;;;;4973323;28;19926;-67
2023/01/09 11:34:58;;;;;;;;;;;8.60;99.90;;;;;;4980479;28;19934;-67
2023/01/09 11:37:28;;;;;;;;;;;8.60;99.90;;;;;;4976389;28;19925;-67
2023/01/09 11:39:55;;;;;;;;;;;8.50;99.90;;;;;;4976469;28;19930;-67
2023/01/09 11:42:50;;;;;;;;;;;8.60;99.90;;;;;;4976435;28;19976;-68
2023/01/09 11:45:15;;;;;;;;;;;8.60;99.90;;;;;;4971788;28;19933;-68
2023/01/09 11:47:44;;;;;;;;;;;9.70;99.90;;;;;;4967981;28;20052;-65
2023/01/09 11:50:18;;;;;;;;;;;12.70;99.90;;;;;;4973805;28;19926;-65
2023/01/09 11:52:46;;;;;;;;;;;11.80;99.90;;;;;;4968759;28;19926;-65
2023/01/09 11:55:16;;;;;;;;;;;10.60;99.90;;;;;;4975818;28;19933;-64
2023/01/09 11:57:42;;;;;;;;;;;9.60;99.90;;;;;;4968105;28;19926;-65
2023/01/09 12:00:20;;;;;;;;;;;9.00;99.90;;;;;;4971254;28;19931;-65
2023/01/09 12:02:57;;;;;;;;;;;8.70;99.90;;;;;;4966989;28;19934;-65
2023/01/09 12:05:30;;;;;;;;;;;8.50;99.90;;;;;;4978825;28;19926;-65
2023/01/09 12:08:07;;;;;;;;;;;8.70;99.90;;;;;;4963846;28;19927;-65
2023/01/09 12:10:41;;;;;;;;;;;8.80;99.90;;;;;;4967973;28;19930;-66
2023/01/09 12:13:11;;;;;;;;;;;8.70;99.90;;;;;;4970879;28;19926;-65
2023/01/09 12:15:41;;;;;;;;;;;8.50;99.90;;;;;;4963439;28;19934;-65
2023/01/09 12:18:22;;;;;;;;;;;8.40;99.90;;;;;;4971303;28;20464;-64
2023/01/09 12:21:11;;;;;;;;;;;8.20;99.90;;;;;;4967787;28;19926;-67
2023/01/09 12:23:47;;;;;;;;;;;8.10;99.90;;;;;;4982414;28;19933;-67
2023/01/09 12:26:17;;;;;;;;;;;8.20;99.90;;;;;;4972179;28;20356;-66
2023/01/09 12:29:00;;;;;;;;;;;8.20;99.90;;;;;;4972344;28;19927;-68
2023/01/09 12:31:32;;;;;;;;;;;8.20;99.90;;;;;;4969414;28;19931;-68
2023/01/09 12:34:05;;;;;;;;;;;8.30;99.90;;;;;;4962068;28;19926;-68
2023/01/09 12:36:35;;;;;;;;;;;8.30;99.90;;;;;;4982977;28;19930;-67
2023/01/09 12:39:07;;;;;;;;;;;8.30;99.90;;;;;;4966309;28;19981;-67
2023/01/09 12:41:42;;;;;;;;;;;8.30;99.90;;;;;;4975844;28;19930;-67
2023/01/09 12:44:20;;;;;;;;;;;8.50;99.90;;;;;;4973889;28;19969;-67
2023/01/09 12:46:50;;;;;;;;;;;8.70;99.90;;;;;;4981061;28;19973;-67
2023/01/09 12:49:29;;;;;;;;;;;8.60;99.90;;;;;;4973078;28;19980;-67
2023/01/09 12:52:00;;;;;;;;;;;8.60;99.90;;;;;;4980530;28;20056;-67
2023/01/09 12:54:33;;;;;;;;;;;8.60;99.90;;;;;;4972601;28;19934;-68
2023/01/09 12:57:01;;;;;;;;;;;9.70;99.90;;;;;;4983954;28;19965;-72
2023/01/09 12:59:31;;;;;;;;;;;10.80;99.90;;;;;;4967796;28;20003;-70
2023/01/09 13:02:00;;;;;;;;;;;10.80;99.90;;;;;;4963568;28;19941;-70
2023/01/09 13:04:30;;;;;;;;;;;10.60;99.90;;;;;;4961121;28;19934;-70
2023/01/09 13:06:59;;;;;;;;;;;9.90;99.90;;;;;;4973176;28;19933;-70
2023/01/09 13:09:32;;;;;;;;;;;9.40;99.90;;;;;;4977126;28;19930;-68
2023/01/09 13:12:03;;;;;;;;;;;8.90;99.90;;;;;;4968359;28;19925;-69
2023/01/09 13:14:39;;;;;;;;;;;8.60;99.90;;;;;;4976871;28;20274;-67
2023/01/09 13:17:11;;;;;;;;;;;8.40;99.90;;;;;;4963939;28;20000;-68
2023/01/09 13:19:39;;;;;;;;;;;8.10;99.90;;;;;;4966277;28;19927;-68
2023/01/09 13:22:06;;;;;;;;;;;8.00;99.90;;;;;;4964235;28;20022;-68
2023/01/09 13:24:37;;;;;;;;;;;8.00;99.90;;;;;;4967187;28;19930;-67
2023/01/09 13:27:05;;;;;;;;;;;8.00;99.90;;;;;;4977483;28;19930;-68
2023/01/09 13:29:35;;;;;;;;;;;8.00;99.90;;;;;;4966746;28;19933;-68
2023/01/09 13:32:20;;;;;;;;;;;8.00;99.90;;;;;;4966533;28;19933;-67
2023/01/09 13:34:49;;;;;;;;;;;7.90;99.90;;;;;;4982011;28;19933;-69
2023/01/09 13:37:21;;;;;;;;;;;7.90;99.90;;;;;;4984268;28;20340;-67
2023/01/09 13:39:56;;;;;;;;;;;7.90;99.90;;;;;;4981374;28;19930;-67
2023/01/09 13:42:37;;;;;;;;;;;7.90;99.90;;;;;;4971990;28;19927;-68
2023/01/09 13:45:11;;;;;;;;;;;7.90;99.90;;;;;;4977073;28;19949;-68
2023/01/09 13:47:38;;;;;;;;;;;8.00;99.90;;;;;;4982036;28;19927;-68
2023/01/09 13:50:21;;;;;;;;;;;8.00;99.90;;;;;;4967103;28;19933;-67
2023/01/09 13:52:48;;;;;;;;;;;8.00;99.90;;;;;;4975746;28;20017;-68
2023/01/09 13:55:28;;;;;;;;;;;8.00;99.90;;;;;;4985938;28;19941;-68
2023/01/09 13:58:17;;;;;;;;;;;8.00;99.90;;;;;;4975701;28;20033;-67
2023/01/09 14:00:48;;;;;;;;;;;8.00;99.90;;;;;;4971911;28;19926;-67
2023/01/09 14:03:19;;;;;;;;;;;7.90;99.90;;;;;;4982927;28;19934;-68
2023/01/09 14:06:05;;;;;;;;;;;7.80;99.90;;;;;;4977322;28;19926;-68
2023/01/09 14:08:32;;;;;;;;;;;7.90;99.90;;;;;;4970843;28;19930;-66
2023/01/09 14:11:02;;;;;;;;;;;7.80;99.90;;;;;;4974792;28;19930;-67
2023/01/09 14:13:30;;;;;;;;;;;7.90;99.90;;;;;;4973189;28;19926;-68
2023/01/09 14:16:02;;;;;;;;;;;7.80;99.90;;;;;;4974009;28;19930;-73
2023/01/09 14:18:30;;;;;;;;;;;7.80;99.90;;;;;;4973769;28;19930;-68
2023/01/09 14:20:58;;;;;;;;;;;7.80;99.90;;;;;;4973391;28;19938;-68
2023/01/09 14:23:26;;;;;;;;;;;7.80;99.90;;;;;;4974972;28;19926;-68
2023/01/09 14:25:53;;;;;;;;;;;7.70;99.90;;;;;;4973923;28;20286;-68
2023/01/09 14:28:22;;;;;;;;;;;7.80;99.90;;;;;;4973374;28;19927;-67
2023/01/09 14:31:09;;;;;;;;;;;7.80;99.90;;;;;;4969664;28;19930;-68
2023/01/09 14:33:36;;;;;;;;;;;7.80;99.90;;;;;;4976560;28;19933;-68
2023/01/09 14:36:12;;;;;;;;;;;7.70;99.90;;;;;;4971055;28;19930;-68
2023/01/09 14:38:41;;;;;;;;;;;7.60;99.90;;;;;;4969439;28;19926;-68
2023/01/09 14:41:11;;;;;;;;;;;7.60;99.90;;;;;;4967773;28;19927;-68
2023/01/09 14:43:43;;;;;;;;;;;7.60;99.90;;;;;;4965381;28;19930;-68
2023/01/09 14:46:12;;;;;;;;;;;7.60;99.90;;;;;;4969729;28;19977;-68
2023/01/09 14:48:41;;;;;;;;;;;7.60;99.90;;;;;;4970606;28;19931;-67
2023/01/09 14:51:10;;;;;;;;;;;7.60;99.90;;;;;;4969001;28;20093;-68
2023/01/09 14:53:38;;;;;;;;;;;7.60;99.90;;;;;;4963968;28;19926;-68
2023/01/09 14:56:07;;;;;;;;;;;7.60;99.90;;;;;;4973589;28;19927;-68
2023/01/09 14:58:34;;;;;;;;;;;7.50;99.90;;;;;;4968180;28;20021;-69
2023/01/09 15:01:04;;;;;;;;;;;7.50;99.90;;;;;;4962279;28;19938;-69
2023/01/09 15:03:33;;;;;;;;;;;7.40;99.90;;;;;;4973279;28;19933;-69
2023/01/09 15:06:00;;;;;;;;;;;7.40;99.90;;;;;;4973064;28;20008;-67
2023/01/09 15:08:28;;;;;;;;;;;7.40;99.90;;;;;;4968468;28;20448;-69
2023/01/09 15:10:55;;;;;;;;;;;7.40;99.90;;;;;;4967192;28;19926;-69
2023/01/09 15:13:26;;;;;;;;;;;7.30;99.90;;;;;;4975337;28;19933;-67
2023/01/09 15:15:53;;;;;;;;;;;7.30;99.90;;;;;;4976301;28;19930;-67
2023/01/09 15:18:23;;;;;;;;;;;7.30;99.90;;;;;;4964160;28;19933;-67
2023/01/09 15:20:55;;;;;;;;;;;7.30;99.90;;;;;;4965742;28;19981;-67
2023/01/09 15:23:23;;;;;;;;;;;7.20;99.90;;;;;;4968520;28;19930;-67
2023/01/09 15:25:49;;;;;;;;;;;7.20;99.90;;;;;;4966810;28;19926;-67
2023/01/09 15:28:23;;;;;;;;;;;7.20;99.90;;;;;;4973381;28;19933;-66
2023/01/09 15:30:54;;;;;;;;;;;7.20;99.90;;;;;;4979442;28;19926;-66
2023/01/09 15:33:22;;;;;;;;;;;7.20;99.90;;;;;;4978917;28;19926;-68
2023/01/09 15:35:50;;;;;;;;;;;7.20;99.90;;;;;;4971057;28;20329;-68
2023/01/09 15:38:18;;;;;;;;;;;7.20;99.90;;;;;;4972017;28;19937;-67
2023/01/09 15:40:52;;;;;;;;;;;7.20;99.90;;;;;;4975736;28;19926;-74
2023/01/09 15:43:18;;;;;;;;;;;7.20;99.90;;;;;;4976186;28;19958;-69
2023/01/09 15:45:45;;;;;;;;;;;7.10;99.90;;;;;;4973382;28;19926;-68
2023/01/09 15:48:21;;;;;;;;;;;7.20;99.90;;;;;;4972170;28;19926;-66
2023/01/09 15:50:50;;;;;;;;;;;7.20;99.90;;;;;;4967973;28;19934;-68
2023/01/09 15:53:17;;;;;;;;;;;7.20;99.90;;;;;;4970648;28;19926;-67
2023/01/09 15:55:45;;;;;;;;;;;7.20;99.90;;;;;;4972264;28;19927;-68
2023/01/09 15:58:33;;;;;;;;;;;7.20;99.90;;;;;;4972487;28;19926;-66
2023/01/09 16:01:00;;;;;;;;;;;7.10;99.90;;;;;;4962350;28;20351;-74
2023/01/09 16:03:27;;;;;;;;;;;7.10;99.90;;;;;;4970924;28;19934;-71
2023/01/09 16:06:04;;;;;;;;;;;7.20;99.90;;;;;;4972126;28;19934;-71
2023/01/09 16:08:33;;;;;;;;;;;7.20;99.90;;;;;;4968720;28;20428;-71
2023/01/09 16:11:02;;;;;;;;;;;7.20;99.90;;;;;;4971431;28;19934;-72
2023/01/09 16:13:30;;;;;;;;;;;7.20;99.90;;;;;;4971780;28;19930;-72
2023/01/09 16:15:57;;;;;;;;;;;7.20;99.90;;;;;;4971891;28;19941;-71
2023/01/09 16:18:29;;;;;;;;;;;7.20;99.90;;;;;;4971677;28;19926;-70
2023/01/09 16:21:20;;;;;;;;;;;7.20;99.90;;;;;;4973799;28;20010;-70
2023/01/09 16:23:52;;;;;;;;;;;7.10;99.90;;;;;;4957646;28;19933;-66
2023/01/09 16:26:22;;;;;;;;;;;7.10;99.90;;;;;;4972582;28;19937;-66
2023/01/09 16:28:49;;;;;;;;;;;7.10;99.90;;;;;;4960999;28;20037;-65
2023/01/09 16:31:18;;;;;;;;;;;7.00;99.90;;;;;;4974231;28;19926;-66
2023/01/09 16:33:48;;;;;;;;;;;6.90;99.90;;;;;;4977460;28;19926;-66
2023/01/09 16:36:15;;;;;;;;;;;6.90;99.90;;;;;;4980643;28;19930;-67
2023/01/09 16:38:42;;;;;;;;;;;7.00;99.90;;;;;;4975199;28;19989;-65
2023/01/09 16:43:57;;;;;;;;;;;6.90;99.90;;;;;;4976988;28;19926;-67
2023/01/09 16:46:24;;;;;;;;;;;6.90;99.90;;;;;;4976583;28;19926;-66
2023/01/09 16:48:51;;;;;;;;;;;6.90;99.90;;;;;;4972233;28;19926;-67
2023/01/09 16:51:20;;;;;;;;;;;6.90;99.90;;;;;;4973102;28;19926;-67
2023/01/09 16:53:47;;;;;;;;;;;6.90;99.90;;;;;;4983502;28;20024;-67
2023/01/09 16:56:17;;;;;;;;;;;6.80;99.90;;;;;;4970840;28;19974;-67
2023/01/09 16:58:45;;;;;;;;;;;6.90;99.90;;;;;;4972247;28;19930;-67
2023/01/09 17:01:12;;;;;;;;;;;6.90;99.90;;;;;;4967564;28;19926;-67
2023/01/09 17:03:39;;;;;;;;;;;6.90;99.90;;;;;;4968566;28;19996;-66
2023/01/09 17:06:06;;;;;;;;;;;6.90;99.90;;;;;;4972114;28;19926;-67
2023/01/09 17:08:34;;;;;;;;;;;6.90;99.90;;;;;;4972467;28;19930;-67
2023/01/09 17:11:02;;;;;;;;;;;6.90;99.90;;;;;;4966843;28;19933;-75
2023/01/09 17:13:30;;;;;;;;;;;6.80;99.90;;;;;;4972244;28;19930;-66
2023/01/09 17:15:58;;;;;;;;;;;6.80;99.90;;;;;;4970384;28;19927;-66
2023/01/09 17:18:26;;;;;;;;;;;6.80;99.90;;;;;;4978255;28;19933;-66
2023/01/09 17:20:53;;;;;;;;;;;6.80;99.90;;;;;;4971869;28;19949;-66
2023/01/09 17:23:24;;;;;;;;;;;6.80;99.90;;;;;;4966183;28;19937;-66
2023/01/09 17:28:39;;;;;;;;;;;6.90;99.90;;;;;;4987062;28;19934;-66
2023/01/09 17:31:08;;;;;;;;;;;6.90;99.90;;;;;;4966992;28;19926;-64
2023/01/09 17:33:35;;;;;;;;;;;6.90;99.90;;;;;;4971902;28;19930;-66
2023/01/09 17:36:02;;;;;;;;;;;6.90;99.90;;;;;;4971627;28;19949;-66
2023/01/09 17:38:29;;;;;;;;;;;6.90;99.90;;;;;;4971678;28;19930;-67
2023/01/09 17:40:55;;;;;;;;;;;6.80;99.90;;;;;;4974652;28;20352;-67
2023/01/09 17:43:23;;;;;;;;;;;6.80;99.90;;;;;;4971728;28;19930;-67
2023/01/09 17:45:51;;;;;;;;;;;6.70;99.90;;;;;;4977042;28;19930;-67
2023/01/09 17:48:19;;;;;;;;;;;6.60;99.90;;;;;;4968928;28;19955;-71
2023/01/09 17:50:46;;;;;;;;;;;6.60;99.90;;;;;;4967851;28;19926;-70
2023/01/09 17:53:13;;;;;;;;;;;6.70;99.90;;;;;;4970481;28;19934;-69
2023/01/09 17:55:40;;;;;;;;;;;6.60;99.90;;;;;;4970484;28;20376;-70
2023/01/09 17:58:08;;;;;;;;;;;6.60;99.90;;;;;;4975998;28;19961;-69
2023/01/09 18:00:35;;;;;;;;;;;6.60;99.90;;;;;;4967651;28;19933;-70
2023/01/09 18:03:06;;;;;;;;;;;6.60;99.90;;;;;;4971305;28;19930;-70
2023/01/09 18:05:35;;;;;;;;;;;6.70;99.90;;;;;;4988964;28;19988;-70
2023/01/09 18:08:02;;;;;;;;;;;6.70;99.90;;;;;;4973123;28;19933;-75
2023/01/09 18:10:29;;;;;;;;;;;6.70;99.90;;;;;;4968457;28;19926;-73
2023/01/09 18:12:56;;;;;;;;;;;6.80;99.90;;;;;;4969347;28;19938;-67
2023/01/09 18:15:23;;;;;;;;;;;6.80;99.90;;;;;;4963908;28;19934;-68
2023/01/09 18:17:50;;;;;;;;;;;6.70;99.90;;;;;;4969526;28;19930;-67
2023/01/09 18:20:19;;;;;;;;;;;6.70;99.90;;;;;;4972613;28;19962;-69
2023/01/09 18:22:46;;;;;;;;;;;6.60;99.90;;;;;;4969979;28;19926;-68
2023/01/09 18:25:13;;;;;;;;;;;6.60;99.90;;;;;;4971813;28;20404;-69
2023/01/09 18:27:40;;;;;;;;;;;6.60;99.90;;;;;;4975080;28;19938;-69
2023/01/09 18:30:07;;;;;;;;;;;6.70;99.90;;;;;;4974097;28;19930;-66
2023/01/09 18:32:34;;;;;;;;;;;6.70;99.90;;;;;;4973895;28;19926;-70
2023/01/09 18:35:01;;;;;;;;;;;6.80;99.90;;;;;;4972735;28;19934;-65
2023/01/09 18:37:29;;;;;;;;;;;6.80;99.90;;;;;;4975224;28;19926;-66
2023/01/09 18:39:56;;;;;;;;;;;6.90;99.90;;;;;;4971568;28;20336;-65
2023/01/09 18:42:22;;;;;;;;;;;6.90;99.90;;;;;;4972152;28;19931;-66
2023/01/09 18:44:49;;;;;;;;;;;6.90;99.90;;;;;;4974807;28;19930;-65
2023/01/09 18:47:16;;;;;;;;;;;6.90;99.90;;;;;;4968507;28;19933;-65
2023/01/09 18:49:42;;;;;;;;;;;7.00;99.90;;;;;;4972727;28;19926;-73
2023/01/09 18:52:09;;;;;;;;;;;7.00;99.90;;;;;;4965768;28;19926;-69
2023/01/09 18:54:37;;;;;;;;;;;7.10;99.90;;;;;;4969698;28;19952;-67
2023/01/09 18:57:04;;;;;;;;;;;7.10;99.90;;;;;;4974381;28;20296;-68